Airfield :
LOGIN :

Register | Disclaimer

   EN    FR    IT 

 










Legend :    VFR   Marginal VFR   IFR   Intensive IFR   Very Intensive IFR
Visi :
Ceiling :
>= 8 km
>= 3000ft
5 to 8 km
1000 to 3000 ft
1500m to 5 km
500 to 1000 ft
800 to 1500m
200 to 500 ft
< 800m
< 200 ft
Symbols :   Thunderstorms  Fog  Heavy snow  Heavy precipitations  Wind > 20 kt
SIGMETs :     Misc.  Thunderstorms  Icing  Turbulence  Mountain Waves  Volcanic Ashes







- Airport Elevation : 17 ft
- IATA code : GRQ


EHGG - Groningen Eelde

CURRENT METAR :
  • 152025Z AUTO 06006KT 9999 NCD 18/13 Q1016 NOSIG

EXPIRED METARs :
  • 151955Z AUTO 04006KT 9999 NCD 20/13 Q1016 NOSIG
  • 151925Z AUTO 02006KT 9999 NCD 21/13 Q1016 NOSIG
  • 151855Z AUTO 03007KT 360V060 9999 NCD 22/13 Q1016 NOSIG
  • 151825Z AUTO 03008KT 350V060 9999 NCD 23/14 Q1015 NOSIG
  • 151755Z AUTO 04009KT 010V070 9999 NCD 23/14 Q1016 NOSIG

TAF TAF EHGG
Valid from the 15 at 18:00 until the 17 at 00:00 UTC


151700Z 1518/1624 05006KT CAVOK
No reported NOTAMs for that airfield.



MET'MAP, your aeronautical weather chart ! - Copyright ORBIFLY December 2007 - Disclaimer

ORBIFLY MET'MAP TEAM :

Programming & Development : Alexandra Zaïnal
Concept & Development : Baudouin d'Aumeries
Co-Development & Prog : Marc-Olivier Méhu
Technical & hardware support : Manuel Goepfert

Contact : metmap@orbifly.com




SOURCES & CREDITS :

   NOAA